Time;durP1;ratioP1;P1;durP2;ratioP2;P2;SDS_P1;SDS_P2;PMS_P1;PMS_P2;Temp;Humidity;BMP_temperature;BMP_pressure;BME280_temperature;BME280_humidity;BME280_pressure;Samples;Min_cycle;Max_cycle;Signal;HPM_P1;HPM_P2
2021/01/16 00:00:35;;;;;;;5.88;2.90;;;-0.10;97.70;;;;;;5050536;28;20247;-47
2021/01/16 00:03:02;;;;;;;7.43;3.15;;;0.00;97.70;;;;;;5050179;28;20223;-46
2021/01/16 00:05:30;;;;;;;6.03;3.72;;;0.10;97.80;;;;;;5050734;28;20218;-46
2021/01/16 00:08:01;;;;;;;3.63;3.10;;;0.70;97.90;;;;;;5050150;28;20248;-48
2021/01/16 00:10:29;;;;;;;4.68;2.88;;;0.00;97.50;;;;;;5050351;28;20324;-47
2021/01/16 00:12:56;;;;;;;3.47;2.90;;;0.00;97.50;;;;;;5050066;28;20194;-47
2021/01/16 00:15:22;;;;;;;5.00;3.00;;;0.20;97.40;;;;;;5050170;28;20211;-47
2021/01/16 00:17:59;;;;;;;5.25;3.45;;;-0.10;97.40;;;;;;5050118;28;20255;-47
2021/01/16 00:20:26;;;;;;;3.95;3.20;;;-0.10;97.40;;;;;;5052870;28;20192;-47
2021/01/16 00:22:53;;;;;;;4.05;2.92;;;0.30;97.50;;;;;;5053170;28;20193;-47
2021/01/16 00:25:19;;;;;;;4.15;2.80;;;0.20;97.40;;;;;;5054007;28;20219;-48
2021/01/16 00:27:46;;;;;;;9.70;2.97;;;0.30;97.70;;;;;;5054416;28;20588;-48
2021/01/16 00:30:14;;;;;;;6.35;3.30;;;0.10;97.40;;;;;;5053671;28;20223;-48
2021/01/16 00:32:41;;;;;;;5.45;2.95;;;0.00;97.40;;;;;;5053032;28;20609;-47
2021/01/16 00:35:12;;;;;;;6.70;3.20;;;0.10;97.50;;;;;;5053670;28;20533;-48
2021/01/16 00:37:39;;;;;;;10.95;2.80;;;0.20;97.80;;;;;;5053605;28;20696;-48
2021/01/16 00:40:08;;;;;;;5.47;3.70;;;0.00;97.70;;;;;;5053239;28;20193;-47
2021/01/16 00:42:39;;;;;;;5.10;3.47;;;0.30;97.90;;;;;;5053104;28;20197;-47
2021/01/16 00:45:06;;;;;;;5.13;3.40;;;0.30;98.00;;;;;;5035433;28;20478;-47
2021/01/16 00:47:34;;;;;;;5.35;4.00;;;0.40;97.90;;;;;;5053125;28;20212;-48
2021/01/16 00:50:01;;;;;;;5.55;3.25;;;-0.10;97.80;;;;;;5035218;28;20208;-47
2021/01/16 00:52:29;;;;;;;6.32;3.60;;;0.10;97.80;;;;;;5035040;28;20284;-47
2021/01/16 00:54:56;;;;;;;4.60;3.03;;;0.10;98.00;;;;;;5035252;28;20561;-48
2021/01/16 00:57:22;;;;;;;5.07;3.80;;;0.30;98.10;;;;;;5035143;28;20717;-48
2021/01/16 00:59:50;;;;;;;4.13;3.47;;;0.20;97.70;;;;;;5034850;28;20300;-47
2021/01/16 01:02:17;;;;;;;4.72;3.10;;;0.40;97.50;;;;;;5035046;28;20517;-47
2021/01/16 01:04:43;;;;;;;5.20;3.53;;;0.30;97.00;;;;;;5052652;28;20585;-48
2021/01/16 01:07:10;;;;;;;4.32;2.97;;;0.70;97.40;;;;;;5052685;28;20233;-47
2021/01/16 01:09:39;;;;;;;5.97;3.85;;;0.30;97.00;;;;;;5052770;28;20193;-47
2021/01/16 01:12:06;;;;;;;4.25;3.22;;;-0.40;96.90;;;;;;5052760;28;20225;-47
2021/01/16 01:14:33;;;;;;;5.03;3.42;;;0.20;97.20;;;;;;5052885;28;20666;-48
2021/01/16 01:16:59;;;;;;;3.67;3.05;;;0.40;97.40;;;;;;5052713;28;20213;-48
2021/01/16 01:19:25;;;;;;;4.82;3.42;;;0.10;97.30;;;;;;5052804;28;20204;-47
2021/01/16 01:21:53;;;;;;;3.95;3.53;;;0.20;97.40;;;;;;5052689;28;20714;-48
2021/01/16 01:24:19;;;;;;;7.50;4.38;;;0.10;97.70;;;;;;5034474;28;20203;-48
2021/01/16 01:26:47;;;;;;;4.93;3.40;;;0.40;97.90;;;;;;5052871;28;20256;-48
2021/01/16 01:29:13;;;;;;;5.35;3.90;;;-0.20;97.50;;;;;;5052790;28;20235;-46
2021/01/16 01:31:40;;;;;;;5.55;3.95;;;0.40;97.90;;;;;;5052374;28;20209;-45
2021/01/16 01:34:06;;;;;;;4.50;4.13;;;0.30;97.90;;;;;;5052287;28;20251;-47
2021/01/16 01:36:36;;;;;;;7.85;4.03;;;0.80;98.60;;;;;;5052614;28;20204;-46
2021/01/16 01:39:04;;;;;;;4.65;3.80;;;0.20;98.10;;;;;;5052961;28;20666;-47
2021/01/16 01:41:30;;;;;;;6.78;4.35;;;0.20;98.20;;;;;;5052485;28;20551;-46
2021/01/16 01:43:57;;;;;;;6.38;4.35;;;0.50;98.30;;;;;;5052858;28;20212;-47
2021/01/16 01:46:24;;;;;;;5.70;3.25;;;0.50;98.50;;;;;;5052015;28;20267;-47
2021/01/16 01:48:54;;;;;;;8.50;4.28;;;0.30;98.40;;;;;;5052194;28;20196;-47
2021/01/16 01:51:22;;;;;;;4.40;3.40;;;0.40;98.20;;;;;;5052355;28;20201;-47
2021/01/16 01:53:51;;;;;;;6.32;4.22;;;0.30;98.20;;;;;;5051801;28;20207;-47
2021/01/16 01:56:20;;;;;;;6.20;3.60;;;0.60;98.40;;;;;;5051926;28;20217;-47
2021/01/16 01:58:49;;;;;;;6.63;4.72;;;0.40;98.00;;;;;;5051810;28;20195;-46
2021/01/16 02:01:19;;;;;;;8.52;5.00;;;0.50;98.30;;;;;;5051724;28;20232;-47
2021/01/16 02:03:47;;;;;;;6.22;3.70;;;0.40;98.40;;;;;;5051440;28;20255;-48
2021/01/16 02:06:14;;;;;;;8.52;4.00;;;0.40;98.60;;;;;;5051622;28;20232;-48
2021/01/16 02:08:40;;;;;;;5.15;4.10;;;0.40;98.60;;;;;;5030651;28;20280;-47
2021/01/16 02:11:07;;;;;;;5.13;3.90;;;-0.10;98.40;;;;;;5031758;28;20258;-50
2021/01/16 02:13:34;;;;;;;7.22;4.40;;;0.50;98.70;;;;;;5031348;28;20642;-47
2021/01/16 02:16:06;;;;;;;4.85;3.80;;;0.40;98.80;;;;;;5045450;28;20330;-46
2021/01/16 02:18:37;;;;;;;5.50;3.90;;;-0.20;98.20;;;;;;5051582;28;20214;-47
2021/01/16 02:21:05;;;;;;;4.90;3.90;;;0.30;98.70;;;;;;5051558;28;20238;-48
2021/01/16 02:23:34;;;;;;;5.57;4.35;;;0.40;98.80;;;;;;5051248;28;20196;-47
2021/01/16 02:26:24;;;;;;;4.97;4.35;;;0.90;99.10;;;;;;5051161;28;20601;-47
2021/01/16 02:28:56;;;;;;;6.43;4.90;;;0.50;99.00;;;;;;5051646;28;20681;-46
2021/01/16 02:31:26;;;;;;;5.75;4.97;;;0.20;99.20;;;;;;5051277;28;20276;-47
2021/01/16 02:33:56;;;;;;;6.47;4.13;;;0.50;99.00;;;;;;5051068;28;20197;-47
2021/01/16 02:36:39;;;;;;;4.53;3.83;;;0.20;99.00;;;;;;5051154;28;20255;-47
2021/01/16 02:39:13;;;;;;;6.15;5.03;;;0.50;99.20;;;;;;5033579;28;20203;-47
2021/01/16 02:41:50;;;;;;;8.05;4.97;;;0.60;99.30;;;;;;5051232;28;20223;-48
2021/01/16 02:44:20;;;;;;;5.40;4.13;;;0.30;98.80;;;;;;5050889;28;20237;-46
2021/01/16 02:46:49;;;;;;;5.13;4.53;;;0.20;99.20;;;;;;5050975;28;20224;-46
2021/01/16 02:49:37;;;;;;;6.95;4.25;;;0.10;99.50;;;;;;5051274;28;20215;-46
2021/01/16 02:52:06;;;;;;;6.07;4.20;;;0.40;99.70;;;;;;5051172;28;20207;-47
2021/01/16 02:54:37;;;;;;;7.03;5.40;;;-0.20;99.50;;;;;;5050851;28;20234;-46
2021/01/16 02:57:05;;;;;;;4.85;4.35;;;0.60;99.90;;;;;;5051180;28;20219;-46
2021/01/16 02:59:35;;;;;;;6.68;4.88;;;0.50;99.90;;;;;;5050940;28;20233;-47
2021/01/16 03:02:04;;;;;;;5.78;4.50;;;0.60;99.90;;;;;;5051510;28;20209;-47
2021/01/16 03:04:31;;;;;;;6.28;4.53;;;-0.20;99.80;;;;;;5051137;28;20680;-46
2021/01/16 03:06:59;;;;;;;5.93;3.92;;;0.50;99.90;;;;;;5050853;28;20307;-47
2021/01/16 03:09:27;;;;;;;5.93;4.88;;;0.50;99.90;;;;;;5050923;28;20232;-46
2021/01/16 03:11:54;;;;;;;8.85;4.55;;;0.50;99.90;;;;;;5050913;28;20191;-47
2021/01/16 03:14:23;;;;;;;6.97;4.68;;;-0.20;99.90;;;;;;5032546;28;20225;-47
2021/01/16 03:17:10;;;;;;;6.80;4.85;;;0.40;99.90;;;;;;5050819;28;20694;-47
2021/01/16 03:19:39;;;;;;;5.60;4.50;;;0.40;99.90;;;;;;5050880;28;20205;-47
2021/01/16 03:22:22;;;;;;;6.97;5.60;;;0.40;99.90;;;;;;5050562;28;20719;-46
2021/01/16 03:24:50;;;;;;;5.82;4.57;;;0.40;99.90;;;;;;5050839;28;20232;-47
2021/01/16 03:27:17;;;;;;;6.72;5.32;;;0.60;99.90;;;;;;5050766;28;20237;-47
2021/01/16 03:29:44;;;;;;;5.55;4.55;;;0.50;99.90;;;;;;5050440;28;20196;-47
2021/01/16 03:32:13;;;;;;;6.00;4.55;;;0.40;99.90;;;;;;5049351;28;20300;-48
2021/01/16 03:34:41;;;;;;;6.05;4.97;;;0.30;99.90;;;;;;5049862;28;20201;-47
2021/01/16 03:37:08;;;;;;;8.07;5.32;;;0.60;99.90;;;;;;5050863;28;20259;-47
2021/01/16 03:39:36;;;;;;;6.05;4.72;;;0.50;99.90;;;;;;5050632;28;20295;-47
2021/01/16 03:42:04;;;;;;;7.65;4.95;;;0.30;99.90;;;;;;5050733;28;20665;-47
2021/01/16 03:44:30;;;;;;;6.50;4.97;;;0.50;99.90;;;;;;5051013;28;20276;-47
2021/01/16 03:46:57;;;;;;;6.07;4.65;;;0.20;99.90;;;;;;5051608;28;20248;-47
2021/01/16 03:49:24;;;;;;;5.28;4.40;;;0.30;99.90;;;;;;5050381;28;20198;-47
2021/01/16 03:51:51;;;;;;;6.80;5.20;;;0.50;99.90;;;;;;5050599;28;20221;-47
2021/01/16 03:54:17;;;;;;;6.53;5.15;;;0.30;99.90;;;;;;5052346;28;20208;-47
2021/01/16 03:56:44;;;;;;;7.32;5.68;;;0.20;99.90;;;;;;5054150;28;20209;-47
2021/01/16 03:59:10;;;;;;;6.72;5.30;;;0.50;99.90;;;;;;5036157;28;20196;-46
2021/01/16 04:01:38;;;;;;;8.13;6.15;;;0.10;99.90;;;;;;5054442;28;20206;-47
2021/01/16 04:04:05;;;;;;;6.45;4.93;;;0.40;99.90;;;;;;5053814;28;20193;-47
2021/01/16 04:06:32;;;;;;;9.77;4.70;;;0.20;99.90;;;;;;5054564;28;20649;-47
2021/01/16 04:08:58;;;;;;;7.03;6.00;;;0.40;99.90;;;;;;5054178;28;20224;-48
2021/01/16 04:11:25;;;;;;;9.75;4.97;;;0.20;99.90;;;;;;5054154;28;20196;-48
2021/01/16 04:13:51;;;;;;;7.50;5.38;;;0.50;99.90;;;;;;5053828;28;20779;-47
2021/01/16 04:16:18;;;;;;;7.45;5.10;;;0.30;99.90;;;;;;5053571;28;20316;-48
2021/01/16 04:18:44;;;;;;;7.70;5.82;;;0.60;99.90;;;;;;5035822;28;20208;-48
2021/01/16 04:21:11;;;;;;;10.10;6.53;;;0.30;99.90;;;;;;5055009;28;20235;-47
2021/01/16 04:23:38;;;;;;;9.00;6.03;;;0.20;99.90;;;;;;5035682;28;20258;-47
2021/01/16 04:26:05;;;;;;;8.23;5.40;;;0.50;99.90;;;;;;5053741;28;20654;-48
2021/01/16 04:28:31;;;;;;;8.10;4.97;;;0.10;99.90;;;;;;5053777;28;20199;-48
2021/01/16 04:30:58;;;;;;;8.30;5.70;;;0.40;99.90;;;;;;5053675;28;20223;-48
2021/01/16 04:33:24;;;;;;;7.13;5.55;;;-0.20;99.90;;;;;;5053395;28;20231;-48
2021/01/16 04:35:51;;;;;;;8.50;5.13;;;0.50;99.90;;;;;;5053996;28;20194;-48
2021/01/16 04:38:17;;;;;;;9.75;5.45;;;0.30;99.90;;;;;;5053953;28;20592;-48
2021/01/16 04:40:45;;;;;;;9.15;5.45;;;0.30;99.90;;;;;;5035882;28;20200;-48
2021/01/16 04:43:12;;;;;;;7.75;5.40;;;0.30;99.90;;;;;;5035567;28;20309;-48
2021/01/16 04:45:40;;;;;;;7.28;5.38;;;0.40;99.90;;;;;;5054873;28;20361;-47
2021/01/16 04:48:09;;;;;;;6.75;5.35;;;0.40;99.90;;;;;;5054669;28;20248;-48
2021/01/16 04:50:39;;;;;;;8.10;5.55;;;0.30;99.90;;;;;;5054004;28;20241;-47
2021/01/16 04:53:07;;;;;;;7.32;5.25;;;0.50;99.90;;;;;;5053195;28;20197;-48
2021/01/16 04:55:35;;;;;;;7.88;5.40;;;0.40;99.90;;;;;;5053772;28;20661;-48
2021/01/16 04:58:07;;;;;;;8.13;5.75;;;0.40;99.90;;;;;;5053364;28;20231;-48
2021/01/16 05:00:37;;;;;;;6.20;5.38;;;0.20;99.90;;;;;;5053461;28;20208;-48
2021/01/16 05:03:06;;;;;;;8.45;6.40;;;0.50;99.90;;;;;;5052911;28;20215;-48
2021/01/16 05:05:34;;;;;;;7.38;5.22;;;0.20;99.90;;;;;;5052209;28;20205;-48
2021/01/16 05:08:02;;;;;;;8.80;5.45;;;0.30;99.90;;;;;;5052673;28;20704;-48
2021/01/16 05:10:36;;;;;;;8.20;5.90;;;0.30;99.90;;;;;;5052882;28;20270;-48
2021/01/16 05:13:11;;;;;;;8.48;5.65;;;0.30;99.90;;;;;;5053111;28;20204;-48
2021/01/16 05:15:39;;;;;;;8.25;6.13;;;0.50;99.90;;;;;;5052916;28;20203;-48
2021/01/16 05:18:09;;;;;;;7.88;5.55;;;0.20;99.90;;;;;;5052582;28;20217;-49
2021/01/16 05:20:37;;;;;;;8.63;6.20;;;0.40;99.90;;;;;;5052800;28;20284;-48
2021/01/16 05:23:13;;;;;;;9.80;6.15;;;0.50;99.90;;;;;;5052502;28;20311;-49
2021/01/16 05:25:41;;;;;;;8.27;6.00;;;0.40;99.90;;;;;;5052683;28;20221;-49
2021/01/16 05:28:10;;;;;;;7.43;5.57;;;0.40;99.90;;;;;;5052526;28;20212;-48
2021/01/16 05:30:53;;;;;;;8.90;5.82;;;0.40;99.90;;;;;;5052762;28;20194;-48
2021/01/16 05:33:22;;;;;;;10.52;6.43;;;0.20;99.90;;;;;;5052179;28;20196;-49
2021/01/16 05:35:51;;;;;;;8.18;5.95;;;0.30;99.90;;;;;;5052354;28;20193;-48
2021/01/16 05:38:21;;;;;;;9.18;5.80;;;0.30;99.90;;;;;;5052435;28;20208;-48
2021/01/16 05:40:48;;;;;;;9.40;6.30;;;1.00;99.90;;;;;;5053580;28;20194;-49
2021/01/16 05:43:19;;;;;;;9.63;6.25;;;0.50;99.90;;;;;;5051974;28;20748;-49
2021/01/16 05:45:48;;;;;;;7.97;6.05;;;1.00;99.90;;;;;;5052791;28;20215;-49
2021/01/16 05:48:14;;;;;;;7.00;6.03;;;0.50;99.90;;;;;;5052060;28;20701;-47
2021/01/16 05:50:41;;;;;;;6.53;5.25;;;0.60;99.90;;;;;;5052188;28;20188;-47
2021/01/16 05:53:08;;;;;;;10.02;6.00;;;0.70;99.90;;;;;;5052146;28;20279;-48
2021/01/16 05:55:36;;;;;;;8.60;6.63;;;0.60;99.90;;;;;;5051966;28;20196;-48
2021/01/16 05:58:06;;;;;;;19.75;9.05;;;0.40;99.90;;;;;;5051852;28;20365;-47
2021/01/16 06:00:40;;;;;;;8.05;6.25;;;0.30;99.90;;;;;;5051898;28;20280;-48
2021/01/16 06:03:08;;;;;;;12.13;7.50;;;0.50;99.90;;;;;;5051550;28;20196;-48
2021/01/16 06:05:36;;;;;;;13.18;6.93;;;0.60;99.90;;;;;;5052054;28;20635;-48
2021/01/16 06:08:03;;;;;;;8.45;5.95;;;0.40;99.90;;;;;;5051545;28;20247;-48
2021/01/16 06:10:34;;;;;;;8.88;6.63;;;0.60;99.90;;;;;;5051776;28;20268;-48
2021/01/16 06:13:13;;;;;;;8.82;6.95;;;0.40;99.90;;;;;;5033474;28;20197;-48
2021/01/16 06:15:45;;;;;;;9.73;6.80;;;0.40;99.90;;;;;;5051533;28;20201;-49
2021/01/16 06:18:29;;;;;;;12.90;7.28;;;0.40;99.90;;;;;;5050908;28;20210;-48
2021/01/16 06:20:56;;;;;;;7.93;6.13;;;0.40;99.90;;;;;;5051577;28;20623;-47
2021/01/16 06:23:24;;;;;;;8.18;5.90;;;0.40;99.90;;;;;;5051062;28;20200;-48
2021/01/16 06:25:55;;;;;;;8.95;6.45;;;0.60;99.90;;;;;;5051209;28;20214;-48
2021/01/16 06:28:24;;;;;;;8.18;6.47;;;0.40;99.90;;;;;;5051518;28;20194;-48
2021/01/16 06:30:56;;;;;;;12.23;7.90;;;0.50;99.90;;;;;;5051620;28;20571;-49
2021/01/16 06:33:25;;;;;;;9.82;6.97;;;0.50;99.90;;;;;;5051063;28;20200;-48
2021/01/16 06:35:57;;;;;;;8.60;7.03;;;0.40;99.90;;;;;;5051057;28;20245;-48
2021/01/16 06:38:29;;;;;;;10.85;6.88;;;0.30;99.90;;;;;;5051437;28;20226;-49
2021/01/16 06:41:04;;;;;;;9.10;7.00;;;0.70;99.90;;;;;;5051153;28;20228;-48
2021/01/16 06:43:38;;;;;;;8.80;6.65;;;0.60;99.90;;;;;;5050916;28;20191;-48
2021/01/16 06:46:09;;;;;;;8.50;6.78;;;0.50;99.90;;;;;;5033065;28;20231;-48
2021/01/16 06:48:38;;;;;;;10.80;6.50;;;0.40;99.90;;;;;;5051023;28;20291;-48
2021/01/16 06:51:09;;;;;;;10.10;7.15;;;0.50;99.90;;;;;;5051150;28;20214;-48
2021/01/16 06:53:35;;;;;;;9.32;6.40;;;0.50;99.90;;;;;;5050732;28;20274;-48
2021/01/16 06:56:14;;;;;;;11.60;8.18;;;0.60;99.90;;;;;;5050843;28;20202;-48
2021/01/16 06:58:43;;;;;;;10.60;7.00;;;0.50;99.90;;;;;;5052380;28;20199;-48
2021/01/16 07:01:12;;;;;;;14.38;7.00;;;1.10;99.90;;;;;;5051702;28;20660;-49
2021/01/16 07:03:47;;;;;;;11.10;7.28;;;0.60;99.90;;;;;;5050826;28;20193;-48
2021/01/16 07:06:14;;;;;;;12.82;7.22;;;0.50;99.90;;;;;;5051025;28;20241;-48
2021/01/16 07:08:44;;;;;;;10.18;7.18;;;0.50;99.90;;;;;;5050873;28;20209;-48
2021/01/16 07:11:11;;;;;;;9.73;6.97;;;0.60;99.90;;;;;;5050818;28;20237;-48
2021/01/16 07:13:42;;;;;;;11.50;7.28;;;0.30;99.90;;;;;;5050141;28;20249;-49
2021/01/16 07:16:10;;;;;;;10.90;9.02;;;0.10;99.90;;;;;;5050778;28;20613;-49
2021/01/16 07:18:39;;;;;;;9.95;6.68;;;0.70;99.90;;;;;;5050995;28;20607;-49
2021/01/16 07:21:07;;;;;;;11.25;8.35;;;0.50;99.90;;;;;;5050875;28;20209;-49
2021/01/16 07:23:35;;;;;;;10.70;7.82;;;0.60;99.90;;;;;;5050353;28;20236;-49
2021/01/16 07:26:03;;;;;;;10.27;8.07;;;0.50;99.90;;;;;;5050450;28;20236;-48
2021/01/16 07:28:30;;;;;;;11.13;7.82;;;0.80;99.90;;;;;;5051663;28;20194;-48
2021/01/16 07:30:57;;;;;;;15.05;8.05;;;0.50;99.90;;;;;;5054894;28;20227;-48
2021/01/16 07:33:29;;;;;;;9.80;7.53;;;0.70;99.90;;;;;;5054215;28;20565;-48
2021/01/16 07:35:58;;;;;;;11.70;8.25;;;0.70;99.90;;;;;;5054538;28;20269;-48
2021/01/16 07:38:27;;;;;;;12.40;8.15;;;0.60;99.90;;;;;;5054629;28;20279;-48
2021/01/16 07:40:57;;;;;;;13.15;7.65;;;0.80;99.90;;;;;;5054834;28;20255;-49
2021/01/16 07:43:49;;;;;;;11.10;7.88;;;0.70;99.90;;;;;;5054384;28;20200;-49
2021/01/16 07:46:20;;;;;;;15.15;8.57;;;0.80;99.90;;;;;;5054481;28;20223;-49
2021/01/16 07:48:50;;;;;;;14.90;8.68;;;0.90;99.90;;;;;;5054511;28;20343;-49
2021/01/16 07:51:17;;;;;;;11.35;7.80;;;0.80;99.90;;;;;;5054674;28;20276;-49
2021/01/16 07:53:45;;;;;;;10.60;7.75;;;0.80;99.90;;;;;;5054001;28;20196;-49
2021/01/16 07:56:21;;;;;;;12.00;7.85;;;0.70;99.90;;;;;;5054372;28;20222;-49
2021/01/16 07:59:03;;;;;;;9.55;7.70;;;0.00;99.90;;;;;;5054191;28;20196;-49
2021/01/16 08:01:41;;;;;;;12.68;8.23;;;0.50;99.90;;;;;;5054182;28;20726;-49
2021/01/16 08:04:23;;;;;;;12.25;6.97;;;0.80;99.90;;;;;;5054028;28;20657;-49
2021/01/16 08:07:02;;;;;;;11.30;8.32;;;0.90;99.90;;;;;;5053892;28;20261;-49
2021/01/16 08:09:44;;;;;;;10.90;8.07;;;0.70;99.90;;;;;;5053922;28;20521;-49
2021/01/16 08:12:14;;;;;;;13.25;8.75;;;0.70;99.90;;;;;;5054425;28;20236;-49
2021/01/16 08:14:41;;;;;;;12.45;8.70;;;0.90;99.90;;;;;;5050884;28;20202;-49
2021/01/16 08:17:13;;;;;;;12.27;8.38;;;0.80;99.90;;;;;;5034515;28;20286;-50
2021/01/16 08:19:55;;;;;;;12.02;8.35;;;0.90;99.90;;;;;;5034365;28;20283;-49
2021/01/16 08:22:22;;;;;;;11.27;8.23;;;0.80;99.90;;;;;;5033390;28;20226;-49
2021/01/16 08:25:02;;;;;;;15.23;9.85;;;0.80;99.90;;;;;;5033815;28;20541;-49
2021/01/16 08:27:29;;;;;;;13.88;10.40;;;0.80;99.90;;;;;;5033724;28;20721;-48
2021/01/16 08:29:56;;;;;;;12.75;8.52;;;0.50;99.90;;;;;;5033976;28;20205;-50
2021/01/16 08:32:22;;;;;;;13.20;9.27;;;0.80;99.90;;;;;;5033721;28;20204;-50
2021/01/16 08:34:55;;;;;;;12.75;9.57;;;0.90;99.90;;;;;;5034191;28;20312;-49
2021/01/16 08:37:34;;;;;;;14.02;9.52;;;0.60;99.90;;;;;;5034495;28;20238;-49
2021/01/16 08:40:01;;;;;;;13.77;9.52;;;0.80;99.90;;;;;;5032626;28;20260;-49
2021/01/16 08:42:28;;;;;;;12.45;9.05;;;0.80;99.90;;;;;;5033091;28;20350;-50
2021/01/16 08:44:57;;;;;;;11.90;8.98;;;0.30;99.90;;;;;;5033208;28;20209;-50
2021/01/16 08:47:24;;;;;;;12.10;9.35;;;0.70;99.90;;;;;;5033135;28;20636;-49
2021/01/16 08:49:51;;;;;;;14.40;9.93;;;0.80;99.90;;;;;;5033282;28;20731;-49
2021/01/16 08:52:31;;;;;;;14.52;8.93;;;0.80;99.90;;;;;;5032747;28;20201;-49
2021/01/16 08:55:02;;;;;;;11.95;9.18;;;0.90;99.90;;;;;;5033202;28;20330;-48
2021/01/16 08:57:30;;;;;;;12.48;9.48;;;0.70;99.90;;;;;;5032661;28;20240;-49
2021/01/16 09:00:12;;;;;;;12.18;8.50;;;0.80;99.90;;;;;;5033262;28;20201;-49
2021/01/16 09:02:39;;;;;;;11.73;8.57;;;0.90;99.90;;;;;;5032809;28;20281;-49
2021/01/16 09:05:21;;;;;;;13.13;7.63;;;0.80;99.90;;;;;;5042910;28;20215;-50
2021/01/16 09:07:49;;;;;;;14.43;9.95;;;1.00;99.90;;;;;;5066714;28;20592;-50
2021/01/16 09:10:22;;;;;;;12.80;8.60;;;0.90;99.90;;;;;;5052532;28;20672;-49
2021/01/16 09:12:50;;;;;;;13.35;9.85;;;1.00;99.90;;;;;;5052491;28;20556;-50
2021/01/16 09:15:18;;;;;;;13.48;8.98;;;0.70;99.90;;;;;;5052419;28;20213;-49
2021/01/16 09:18:07;;;;;;;16.98;8.60;;;0.90;99.90;;;;;;5052341;28;20704;-50
2021/01/16 09:20:35;;;;;;;11.68;7.60;;;1.00;99.90;;;;;;5052690;28;20225;-49
2021/01/16 09:23:31;;;;;;;9.73;7.55;;;0.90;99.90;;;;;;5052464;28;20222;-50
2021/01/16 09:26:06;;;;;;;11.75;9.32;;;1.00;99.90;;;;;;5052445;28;20208;-50
2021/01/16 09:28:47;;;;;;;12.77;8.82;;;0.90;99.90;;;;;;5052636;28;20595;-49
2021/01/16 09:31:28;;;;;;;10.30;7.68;;;1.00;99.90;;;;;;5052483;28;20227;-50
2021/01/16 09:33:57;;;;;;;14.65;9.05;;;1.10;99.90;;;;;;5052060;28;20628;-50
2021/01/16 09:36:41;;;;;;;15.15;9.20;;;1.40;99.90;;;;;;5053017;28;20208;-49
2021/01/16 09:39:16;;;;;;;14.30;9.98;;;1.00;99.90;;;;;;5034092;28;20235;-50
2021/01/16 09:41:43;;;;;;;13.35;9.57;;;1.10;99.90;;;;;;5052092;28;20213;-49
2021/01/16 09:44:09;;;;;;;15.32;9.63;;;1.10;99.90;;;;;;5051326;28;20267;-49
2021/01/16 09:46:37;;;;;;;15.70;10.27;;;1.40;99.90;;;;;;5051595;28;20281;-49
2021/01/16 09:49:06;;;;;;;13.85;9.13;;;1.40;99.90;;;;;;5051987;28;20196;-48
2021/01/16 09:51:34;;;;;;;12.00;8.65;;;1.40;99.90;;;;;;5051686;28;20220;-49
2021/01/16 09:54:13;;;;;;;11.63;8.40;;;1.50;99.90;;;;;;5051464;28;20266;-49
2021/01/16 09:56:47;;;;;;;15.23;8.88;;;1.20;99.90;;;;;;5051806;28;20215;-50
2021/01/16 09:59:21;;;;;;;16.20;9.88;;;1.40;99.90;;;;;;5051830;28;20215;-49
2021/01/16 10:02:09;;;;;;;12.70;9.25;;;1.30;99.90;;;;;;5051727;28;20192;-48
2021/01/16 10:04:40;;;;;;;14.52;9.02;;;1.50;99.90;;;;;;5051304;28;20235;-49
2021/01/16 10:07:10;;;;;;;16.42;10.90;;;1.20;99.90;;;;;;5077015;22;20219;-44
2021/01/16 10:09:45;;;;;;;15.30;9.77;;;1.40;99.90;;;;;;5033122;28;20201;-45
2021/01/16 10:12:40;;;;;;;10.88;8.30;;;1.40;99.90;;;;;;5033061;28;20568;-44
2021/01/16 10:15:09;;;;;;;12.55;9.50;;;1.50;99.90;;;;;;5039046;28;20204;-45
2021/01/16 10:17:40;;;;;;;10.88;8.52;;;1.50;99.90;;;;;;5052856;28;20212;-44
2021/01/16 10:20:08;;;;;;;10.20;8.00;;;1.60;99.90;;;;;;5053092;28;20222;-44
2021/01/16 10:22:36;;;;;;;10.75;8.35;;;1.50;99.90;;;;;;5053079;28;20199;-45
2021/01/16 10:25:10;;;;;;;10.50;7.60;;;1.80;99.90;;;;;;5052443;28;20573;-45
2021/01/16 10:27:46;;;;;;;11.95;9.02;;;1.60;99.90;;;;;;5052371;28;20223;-44
2021/01/16 10:30:17;;;;;;;11.63;8.18;;;1.40;99.90;;;;;;5052630;28;20203;-44
2021/01/16 10:32:45;;;;;;;11.10;8.27;;;1.50;99.90;;;;;;5052521;28;20223;-45
2021/01/16 10:35:22;;;;;;;12.85;8.20;;;1.70;99.90;;;;;;5053384;28;20202;-46
2021/01/16 10:37:51;;;;;;;14.52;8.30;;;1.50;99.90;;;;;;5052278;28;20218;-45
2021/01/16 10:40:19;;;;;;;10.75;8.07;;;1.70;99.90;;;;;;5052582;28;20199;-46
2021/01/16 10:42:48;;;;;;;12.07;8.32;;;1.70;99.90;;;;;;5052031;28;20724;-46
2021/01/16 10:45:16;;;;;;;13.45;8.70;;;1.50;99.90;;;;;;5052438;28;20242;-44
2021/01/16 10:47:44;;;;;;;16.00;8.90;;;1.80;99.90;;;;;;5053202;28;20706;-44
2021/01/16 10:50:13;;;;;;;11.60;8.45;;;1.80;99.90;;;;;;5051056;28;20298;-43
2021/01/16 10:52:41;;;;;;;11.10;7.65;;;1.50;99.90;;;;;;5033978;28;20246;-45
2021/01/16 10:55:09;;;;;;;12.32;8.35;;;1.70;99.90;;;;;;5052232;28;20198;-47
2021/01/16 10:57:48;;;;;;;13.57;8.75;;;1.50;99.90;;;;;;5052039;28;20524;-45
2021/01/16 11:00:17;;;;;;;11.00;7.72;;;1.70;99.90;;;;;;5051955;28;20206;-44
2021/01/16 11:02:46;;;;;;;10.90;8.90;;;1.70;99.90;;;;;;5051278;28;20196;-44
2021/01/16 11:05:25;;;;;;;10.55;7.72;;;1.60;99.90;;;;;;5052165;28;20192;-44
2021/01/16 11:07:55;;;;;;;11.35;8.60;;;1.60;99.90;;;;;;5051660;28;20231;-45
2021/01/16 11:10:30;;;;;;;10.25;7.75;;;1.70;99.90;;;;;;5052231;28;20203;-44
2021/01/16 11:13:27;;;;;;;11.25;8.50;;;1.90;99.90;;;;;;5051308;28;20532;-44
2021/01/16 11:15:56;;;;;;;12.95;8.25;;;1.90;99.90;;;;;;5052287;28;20730;-43
2021/01/16 11:18:31;;;;;;;12.60;8.50;;;1.70;99.90;;;;;;5052010;28;20235;-46
2021/01/16 11:21:01;;;;;;;13.57;8.27;;;1.80;99.90;;;;;;5051866;28;20305;-44
2021/01/16 11:23:39;;;;;;;15.20;8.02;;;1.90;99.90;;;;;;5052660;28;20196;-46
2021/01/16 11:26:07;;;;;;;8.82;6.93;;;2.00;99.90;;;;;;5053148;28;20212;-45
2021/01/16 11:28:49;;;;;;;10.07;7.90;;;1.80;99.90;;;;;;5035764;28;20468;-43
2021/01/16 11:31:30;;;;;;;11.40;8.07;;;1.80;99.90;;;;;;5053008;28;20195;-43
2021/01/16 11:34:24;;;;;;;14.43;9.23;;;1.90;99.90;;;;;;5051443;28;20199;-44
2021/01/16 11:37:09;;;;;;;12.05;7.40;;;1.60;99.90;;;;;;5052454;28;20271;-43
2021/01/16 11:39:48;;;;;;;13.25;8.90;;;2.00;99.90;;;;;;5052154;28;20196;-44
2021/01/16 11:42:16;;;;;;;12.60;8.15;;;1.90;99.90;;;;;;5051660;28;20287;-45
2021/01/16 11:44:57;;;;;;;10.98;8.38;;;2.10;99.90;;;;;;5051445;28;20249;-44
2021/01/16 11:47:26;;;;;;;9.00;7.03;;;2.10;99.90;;;;;;5051351;28;20603;-44
2021/01/16 11:49:53;;;;;;;12.73;7.88;;;1.90;99.90;;;;;;5051464;28;20274;-44
2021/01/16 11:52:20;;;;;;;12.50;8.07;;;1.70;99.90;;;;;;5051204;28;20204;-45
2021/01/16 11:54:48;;;;;;;10.40;7.60;;;2.10;99.90;;;;;;5052288;28;20207;-45
2021/01/16 11:57:18;;;;;;;11.15;8.90;;;2.00;99.90;;;;;;5052320;28;20583;-46
2021/01/16 11:59:46;;;;;;;8.70;7.43;;;1.60;99.90;;;;;;5053880;28;20192;-45
2021/01/16 12:02:14;;;;;;;9.43;6.90;;;2.10;99.90;;;;;;5054479;28;20196;-46
2021/01/16 12:04:42;;;;;;;14.85;8.95;;;1.40;99.90;;;;;;5053943;28;20188;-46
2021/01/16 12:07:12;;;;;;;12.20;8.55;;;2.10;99.90;;;;;;5054080;28;20259;-46
2021/01/16 12:09:42;;;;;;;11.30;8.02;;;2.00;99.90;;;;;;5051771;28;20278;-45
2021/01/16 12:12:10;;;;;;;11.05;7.80;;;1.30;99.90;;;;;;5052031;28;20249;-45
2021/01/16 12:14:38;;;;;;;11.30;8.27;;;1.70;99.90;;;;;;5052914;28;20200;-45
2021/01/16 12:17:06;;;;;;;9.75;6.93;;;1.70;99.90;;;;;;5054748;28;20204;-46
2021/01/16 12:19:35;;;;;;;12.00;8.43;;;1.80;99.90;;;;;;5054964;28;20195;-45
2021/01/16 12:22:04;;;;;;;11.73;8.70;;;1.50;99.90;;;;;;5054738;28;20203;-46
2021/01/16 12:24:31;;;;;;;9.68;7.63;;;1.40;99.90;;;;;;5036936;28;20249;-45
2021/01/16 12:26:59;;;;;;;13.02;8.80;;;1.60;99.90;;;;;;5054335;28;20220;-45
2021/01/16 12:29:39;;;;;;;10.02;7.00;;;1.70;99.90;;;;;;5054225;28;20200;-45
2021/01/16 12:32:08;;;;;;;15.48;8.95;;;1.40;99.90;;;;;;5054260;28;20608;-45
2021/01/16 12:34:45;;;;;;;11.20;8.48;;;1.50;99.90;;;;;;5054086;28;20266;-45
2021/01/16 12:37:12;;;;;;;9.20;7.00;;;1.80;99.90;;;;;;5036388;28;20270;-46
2021/01/16 12:39:39;;;;;;;10.95;7.65;;;1.60;99.90;;;;;;5054760;28;20199;-45
2021/01/16 12:42:07;;;;;;;9.70;7.10;;;1.60;99.90;;;;;;5055362;28;20192;-46
2021/01/16 12:44:34;;;;;;;7.68;5.65;;;1.80;99.90;;;;;;5054582;28;20733;-45
2021/01/16 12:47:02;;;;;;;9.07;6.35;;;1.70;99.90;;;;;;5036574;28;20227;-45
2021/01/16 12:49:28;;;;;;;11.43;7.15;;;1.80;99.90;;;;;;5055888;28;20282;-44
2021/01/16 12:51:56;;;;;;;10.10;6.95;;;1.50;99.90;;;;;;5038903;28;20340;-44
2021/01/16 12:54:23;;;;;;;11.68;7.57;;;2.00;99.90;;;;;;5054817;28;20192;-44
2021/01/16 12:56:49;;;;;;;9.45;6.32;;;2.00;99.90;;;;;;5053614;28;20212;-46
2021/01/16 12:59:18;;;;;;;9.70;6.25;;;1.60;99.90;;;;;;5053863;28;20216;-46
2021/01/16 13:01:48;;;;;;;8.02;6.43;;;1.80;99.60;;;;;;5054437;28;20570;-45
2021/01/16 13:04:16;;;;;;;9.57;6.63;;;1.60;99.50;;;;;;5054069;28;20203;-44
2021/01/16 13:06:44;;;;;;;7.10;5.15;;;1.70;99.80;;;;;;5053158;28;20226;-46
2021/01/16 13:09:14;;;;;;;12.00;7.50;;;2.10;99.60;;;;;;5054320;28;20215;-46